createdAt,value
2023-01-31T00:01:43.264Z,-0.91
2023-01-31T00:04:16.153Z,-0.93
2023-01-31T00:06:47.459Z,-0.81
2023-01-31T00:09:16.094Z,-0.81
2023-01-31T00:11:44.806Z,-1.02
2023-01-31T00:14:16.424Z,-0.99
2023-01-31T00:16:45.155Z,-0.75
2023-01-31T00:19:13.889Z,-0.74
2023-01-31T00:21:43.968Z,-0.75
2023-01-31T00:24:15.984Z,-0.58
2023-01-31T00:26:44.785Z,-0.75
2023-01-31T00:29:15.073Z,-0.84
2023-01-31T00:31:44.005Z,-0.92
2023-01-31T00:34:13.132Z,-0.94
2023-01-31T00:36:41.907Z,-1.02
2023-01-31T00:39:12.045Z,-1.09
2023-01-31T00:41:43.097Z,-1.10
2023-01-31T00:44:11.762Z,-0.98
2023-01-31T00:46:40.519Z,-1.02
2023-01-31T00:49:09.323Z,-0.97
2023-01-31T00:51:38.483Z,-1.06
2023-01-31T00:54:07.056Z,-1.03
2023-01-31T00:56:37.925Z,-0.99
2023-01-31T00:59:08.805Z,-1.02
2023-01-31T01:01:38.339Z,-1.11
2023-01-31T01:04:08.564Z,-1.05
2023-01-31T01:06:38.881Z,-1.03
2023-01-31T01:09:07.518Z,-1.10
2023-01-31T01:11:36.880Z,-1.18
2023-01-31T01:14:07.300Z,-1.21
2023-01-31T01:16:39.025Z,-1.27
2023-01-31T01:19:09.862Z,-1.23
2023-01-31T01:21:41.224Z,-1.23
2023-01-31T01:24:18.436Z,-1.23
2023-01-31T01:26:47.733Z,-1.15
2023-01-31T01:29:16.376Z,-1.13
2023-01-31T01:31:47.856Z,-1.05
2023-01-31T01:34:18.139Z,-1.07
2023-01-31T01:36:48.121Z,-1.04
2023-01-31T01:39:16.975Z,-0.98
2023-01-31T01:41:46.113Z,-0.94
2023-01-31T01:44:52.443Z,-0.83
2023-01-31T01:47:43.807Z,-0.72
2023-01-31T01:50:27.602Z,-0.68
2023-01-31T01:53:08.505Z,-0.71
2023-01-31T01:55:45.143Z,-0.62
2023-01-31T01:58:21.662Z,-0.59
2023-01-31T02:00:54.968Z,-0.57
2023-01-31T02:03:26.125Z,-0.58
2023-01-31T02:06:07.847Z,-0.61
2023-01-31T02:08:39.214Z,-0.66
2023-01-31T02:11:23.022Z,-0.59
2023-01-31T02:13:54.224Z,-0.60
2023-01-31T02:16:22.809Z,-0.56
2023-01-31T02:18:51.578Z,-0.50
2023-01-31T02:21:23.920Z,-0.48
2023-01-31T02:24:07.555Z,-0.45
2023-01-31T02:27:03.394Z,-0.39
2023-01-31T02:29:57.395Z,-0.40
2023-01-31T02:32:31.988Z,-0.38
2023-01-31T02:35:09.254Z,-0.34
2023-01-31T02:38:04.861Z,-0.31
2023-01-31T02:40:42.074Z,-0.33
2023-01-31T02:43:22.734Z,-0.32
2023-01-31T02:45:57.113Z,-0.29
2023-01-31T02:49:03.944Z,-0.27
2023-01-31T02:51:38.669Z,-0.30
2023-01-31T02:54:13.098Z,-0.32
2023-01-31T02:56:45.119Z,-0.33
2023-01-31T02:59:24.095Z,-0.33
2023-01-31T03:01:59.998Z,-0.30
2023-01-31T03:04:51.012Z,-0.25
2023-01-31T03:07:28.258Z,-0.29
2023-01-31T03:10:20.760Z,-0.37
2023-01-31T03:13:15.317Z,-0.48
2023-01-31T03:16:28.181Z,-0.58
2023-01-31T03:22:11.840Z,-0.74
2023-01-31T03:24:53.455Z,-0.86
2023-01-31T03:30:36.576Z,-0.83
2023-01-31T03:33:34.544Z,-0.84
2023-01-31T03:36:28.909Z,-0.87
2023-01-31T03:39:43.307Z,-0.91
2023-01-31T03:42:42.186Z,-0.97
2023-01-31T03:45:23.092Z,-0.99
2023-01-31T03:51:10.339Z,-0.91
2023-01-31T03:53:55.242Z,-0.90
2023-01-31T04:02:19.814Z,-0.86
2023-01-31T04:05:00.165Z,-0.87
2023-01-31T04:07:34.511Z,-0.83
2023-01-31T04:13:01.874Z,-0.76
2023-01-31T04:15:36.012Z,-0.72
2023-01-31T04:18:08.443Z,-0.73
2023-01-31T04:21:06.201Z,-0.72
2023-01-31T04:26:03.411Z,-0.70
2023-01-31T04:28:50.340Z,-0.70
2023-01-31T04:34:29.774Z,-0.81
2023-01-31T04:43:22.355Z,-0.91
2023-01-31T04:47:29.537Z,-0.96
2023-01-31T04:50:28.137Z,-0.98
2023-01-31T04:53:06.005Z,-0.93
2023-01-31T04:54:22.936Z,-1.00
2023-01-31T04:57:09.086Z,-0.96
2023-01-31T05:06:09.652Z,-0.96
2023-01-31T05:08:44.931Z,-0.96
2023-01-31T05:14:19.115Z,-0.98
2023-01-31T05:17:04.584Z,-0.96
2023-01-31T05:19:25.508Z,-0.94
2023-01-31T05:22:14.158Z,-0.91
2023-01-31T05:24:47.633Z,-0.89
2023-01-31T05:27:25.760Z,-0.83
2023-01-31T05:30:07.768Z,-0.83
2023-01-31T05:33:22.209Z,-0.79
2023-01-31T05:36:22.552Z,-0.75
2023-01-31T05:41:39.728Z,-0.72
2023-01-31T05:44:10.891Z,-0.73
2023-01-31T05:46:49.438Z,-0.74
2023-01-31T05:49:33.698Z,-0.69
2023-01-31T05:52:14.816Z,-0.65
2023-01-31T05:55:06.641Z,-0.63
2023-01-31T05:57:38.809Z,-0.57
2023-01-31T06:03:38.626Z,-0.50
2023-01-31T06:06:36.436Z,-0.98
2023-01-31T06:09:11.693Z,-0.43
2023-01-31T06:11:46.868Z,-0.36
2023-01-31T06:17:33.298Z,-0.31
2023-01-31T06:23:15.069Z,-0.36
2023-01-31T06:56:43.568Z,0.04
2023-01-31T06:59:40.881Z,-0.05
2023-01-31T07:02:14.596Z,-0.01
2023-01-31T07:08:09.899Z,0.02
2023-01-31T07:10:54.795Z,0.22
2023-01-31T07:14:23.438Z,0.16
2023-01-31T07:16:32.978Z,0.24
2023-01-31T07:19:04.980Z,0.28
2023-01-31T07:22:00.419Z,0.36
2023-01-31T07:41:33.263Z,0.43
2023-01-31T07:47:18.525Z,0.69
2023-01-31T07:55:52.397Z,0.64
2023-01-31T09:01:10.297Z,1.53
2023-01-31T09:03:40.568Z,1.52
2023-01-31T09:20:32.211Z,1.82
2023-01-31T09:23:43.818Z,1.74
2023-01-31T10:02:18.554Z,2.82
2023-01-31T10:05:12.641Z,3.24
2023-01-31T10:08:07.327Z,3.22
2023-01-31T10:10:55.427Z,3.14
2023-01-31T10:20:34.878Z,2.48
2023-01-31T10:23:18.361Z,3.07
2023-01-31T10:26:04.145Z,2.77
2023-01-31T10:28:43.037Z,3.15
2023-01-31T10:31:43.593Z,3.35
2023-01-31T10:34:30.353Z,3.23
2023-01-31T10:37:20.278Z,2.72
2023-01-31T10:39:51.944Z,3.08
2023-01-31T10:42:37.178Z,3.01
2023-01-31T10:45:22.586Z,2.73
2023-01-31T12:36:03.429Z,2.11
2023-01-31T12:38:39.909Z,2.19
2023-01-31T12:41:37.670Z,2.06
2023-01-31T12:44:39.965Z,2.11
2023-01-31T12:47:26.511Z,2.10
2023-01-31T12:50:31.651Z,1.99
2023-01-31T12:53:18.516Z,2.00
2023-01-31T12:56:25.311Z,1.96
2023-01-31T12:59:14.992Z,1.52
2023-01-31T13:01:46.955Z,1.78
2023-01-31T13:04:44.357Z,1.32
2023-01-31T13:07:25.326Z,1.49
2023-01-31T13:09:56.064Z,1.73
2023-01-31T13:12:27.808Z,1.82
2023-01-31T13:15:14.487Z,1.67
2023-01-31T13:17:46.212Z,1.73
2023-01-31T13:20:35.718Z,1.66
2023-01-31T13:55:34.995Z,1.85
2023-01-31T14:01:27.535Z,1.80
2023-01-31T14:04:15.113Z,1.80
2023-01-31T14:06:55.573Z,1.83
2023-01-31T14:09:28.948Z,1.67
2023-01-31T14:12:12.262Z,1.56
2023-01-31T14:14:49.567Z,1.65
2023-01-31T14:17:38.316Z,1.57
2023-01-31T14:20:21.939Z,1.55
2023-01-31T14:23:11.166Z,1.47
2023-01-31T14:25:43.937Z,1.47
2023-01-31T14:28:13.279Z,1.49
2023-01-31T14:31:07.651Z,1.45
2023-01-31T14:33:36.621Z,1.46
2023-01-31T14:36:26.214Z,1.53
2023-01-31T14:39:22.328Z,1.63
2023-01-31T14:42:16.396Z,1.81
2023-01-31T14:45:01.417Z,1.71
2023-01-31T14:47:57.228Z,1.67
2023-01-31T14:50:49.916Z,1.58
2023-01-31T14:53:45.686Z,1.41
2023-01-31T14:56:20.360Z,1.49
2023-01-31T14:58:50.855Z,1.35
2023-01-31T15:01:31.744Z,1.23
2023-01-31T15:04:01.589Z,1.26
2023-01-31T15:06:34.687Z,1.26
2023-01-31T15:09:26.428Z,1.19
2023-01-31T15:12:01.356Z,1.21
2023-01-31T15:14:53.586Z,1.04
2023-01-31T15:17:37.573Z,0.99
2023-01-31T15:20:33.017Z,0.98
2023-01-31T15:23:06.574Z,0.95
2023-01-31T15:26:02.139Z,0.97
2023-01-31T15:54:34.384Z,0.96
2023-01-31T15:57:04.291Z,0.96
2023-01-31T15:59:34.687Z,0.85
2023-01-31T16:02:05.688Z,0.88
2023-01-31T16:04:34.315Z,0.87
2023-01-31T16:07:05.358Z,0.86
2023-01-31T16:09:39.660Z,0.91
2023-01-31T16:12:10.087Z,0.88
2023-01-31T16:14:39.283Z,0.91
2023-01-31T16:17:09.614Z,0.92
2023-01-31T16:19:43.029Z,0.92
2023-01-31T16:22:34.087Z,1.00
2023-01-31T17:08:09.163Z,0.94
2023-01-31T17:26:35.302Z,0.55
2023-01-31T17:32:25.832Z,0.88
2023-01-31T17:35:20.303Z,0.93
2023-01-31T17:42:36.642Z,0.92
2023-01-31T17:49:45.168Z,0.79
2023-01-31T17:52:46.194Z,0.94
2023-01-31T17:55:39.994Z,0.86
2023-01-31T18:01:26.153Z,0.78
2023-01-31T18:03:59.998Z,0.78
2023-01-31T18:06:35.080Z,0.76
2023-01-31T18:09:15.803Z,0.74
2023-01-31T18:11:45.234Z,0.76
2023-01-31T18:14:24.223Z,0.77
2023-01-31T18:16:55.643Z,0.77
2023-01-31T18:19:24.229Z,0.71
2023-01-31T18:21:55.258Z,0.69
2023-01-31T18:24:30.200Z,0.66
2023-01-31T18:26:59.341Z,0.65
2023-01-31T18:29:34.137Z,0.66
2023-01-31T18:32:08.870Z,0.67
2023-01-31T18:34:40.161Z,0.66
2023-01-31T19:10:05.874Z,0.81
2023-01-31T20:20:04.617Z,0.35
2023-01-31T20:25:31.032Z,-0.23
2023-01-31T20:28:15.588Z,0.24
2023-01-31T21:20:46.708Z,-0.51
2023-01-31T21:23:15.749Z,-0.59
2023-01-31T21:25:46.124Z,-0.59
2023-01-31T21:28:14.797Z,-0.57
2023-01-31T21:30:44.059Z,-0.66
2023-01-31T21:33:12.838Z,-0.64
2023-01-31T21:35:44.762Z,-0.59
2023-01-31T21:41:52.031Z,-0.41
2023-01-31T21:44:26.471Z,-0.54
2023-01-31T21:46:55.324Z,-0.58
2023-01-31T21:49:57.999Z,-0.50
2023-01-31T21:53:02.656Z,-0.54
2023-01-31T21:55:23.349Z,-0.52
2023-01-31T21:57:55.437Z,-0.48
2023-01-31T22:00:25.903Z,-0.55
2023-01-31T22:02:54.963Z,-0.59
2023-01-31T22:05:29.611Z,-0.58
2023-01-31T22:07:58.382Z,-0.51
2023-01-31T22:10:26.987Z,-0.40
2023-01-31T22:12:55.716Z,-0.42
2023-01-31T22:15:24.425Z,-0.45
2023-01-31T22:17:55.764Z,-0.51
2023-01-31T22:20:28.935Z,-0.59
2023-01-31T22:25:57.474Z,-0.35
2023-01-31T22:28:28.456Z,-0.31
2023-01-31T22:31:01.007Z,-0.26
2023-01-31T22:33:47.844Z,-0.21
2023-01-31T22:36:25.549Z,-0.09
2023-01-31T22:38:54.985Z,-0.09
2023-01-31T22:41:24.166Z,-0.05
2023-01-31T22:43:54.215Z,0.04
2023-01-31T22:46:25.848Z,0.16
2023-01-31T22:48:55.671Z,0.16
2023-01-31T22:51:47.573Z,0.10
2023-01-31T22:54:18.202Z,0.03
2023-01-31T22:56:47.297Z,0.09
2023-01-31T22:59:22.221Z,0.12
2023-01-31T23:01:51.296Z,0.30
2023-01-31T23:04:20.296Z,0.39
2023-01-31T23:06:55.589Z,0.17
2023-01-31T23:09:24.219Z,0.22
2023-01-31T23:11:56.250Z,0.19
2023-01-31T23:14:24.960Z,0.17
2023-01-31T23:17:14.889Z,0.19
2023-01-31T23:19:43.644Z,0.17
2023-01-31T23:22:14.012Z,-0.02
2023-01-31T23:24:45.513Z,-0.12
2023-01-31T23:27:26.051Z,-0.01
2023-01-31T23:29:56.462Z,0.03
2023-01-31T23:32:28.106Z,0.10
2023-01-31T23:34:56.909Z,0.01
2023-01-31T23:37:25.986Z,0.09
2023-01-31T23:39:54.580Z,0.12
2023-01-31T23:42:23.369Z,0.04
2023-01-31T23:44:52.382Z,0.05
2023-01-31T23:47:22.217Z,0.08
2023-01-31T23:49:50.862Z,0.17
2023-01-31T23:52:19.521Z,0.09
2023-01-31T23:54:48.291Z,0.13
2023-01-31T23:57:18.728Z,0.10
2023-01-31T23:59:48.917Z,0.13
